createdAt,value
2022-10-19T00:01:03.659Z,5.80
2022-10-19T00:03:30.629Z,5.37
2022-10-19T00:05:57.627Z,5.10
2022-10-19T00:08:24.576Z,5.27
2022-10-19T00:10:51.614Z,5.60
2022-10-19T00:13:18.656Z,5.30
2022-10-19T00:15:45.578Z,6.30
2022-10-19T00:18:12.522Z,6.00
2022-10-19T00:20:39.641Z,6.03
2022-10-19T00:23:06.507Z,6.27
2022-10-19T00:25:33.434Z,6.80
2022-10-19T00:28:01.188Z,7.07
2022-10-19T00:30:28.106Z,11.20
2022-10-19T00:32:55.069Z,8.70
2022-10-19T00:35:22.074Z,10.33
2022-10-19T00:37:48.971Z,7.70
2022-10-19T00:40:15.934Z,9.10
2022-10-19T00:42:42.823Z,7.50
2022-10-19T00:45:18.085Z,7.13
2022-10-19T00:47:46.837Z,7.37
2022-10-19T00:50:15.563Z,8.23
2022-10-19T00:52:42.815Z,10.03
2022-10-19T00:55:11.310Z,11.43
2022-10-19T00:57:38.405Z,14.80
2022-10-19T01:00:07.699Z,7.53
2022-10-19T01:02:35.341Z,5.83
2022-10-19T01:05:03.141Z,21.87
2022-10-19T01:07:30.347Z,8.30
2022-10-19T01:09:57.707Z,50.07
2022-10-19T01:12:44.045Z,7.53
2022-10-19T01:15:34.833Z,11.43
2022-10-19T01:18:07.528Z,9.40
2022-10-19T01:20:52.717Z,7.17
2022-10-19T01:23:25.448Z,7.37
2022-10-19T01:26:31.379Z,5.97
2022-10-19T01:28:58.280Z,72.67
2022-10-19T01:31:25.336Z,57.83
2022-10-19T01:34:15.458Z,38.90
2022-10-19T01:36:42.322Z,10.53
2022-10-19T01:39:12.186Z,16.93
2022-10-19T01:41:42.164Z,7.17
2022-10-19T01:44:18.872Z,7.57
2022-10-19T01:46:55.388Z,7.77
2022-10-19T01:49:42.415Z,17.43
2022-10-19T01:52:13.496Z,7.40
2022-10-19T01:54:44.987Z,8.30
2022-10-19T01:57:17.073Z,30.37
2022-10-19T01:59:45.492Z,71.47
2022-10-19T02:02:14.372Z,114.70
2022-10-19T02:04:42.288Z,142.93
2022-10-19T02:07:11.354Z,300.37
2022-10-19T02:09:38.287Z,187.83
2022-10-19T02:12:09.991Z,77.07
2022-10-19T02:14:41.651Z,117.67
2022-10-19T02:17:13.874Z,255.47
2022-10-19T02:19:41.125Z,32.13
2022-10-19T02:22:08.863Z,126.37
2022-10-19T02:24:35.896Z,72.63
2022-10-19T02:27:05.526Z,38.73
2022-10-19T02:29:36.972Z,29.73
2022-10-19T02:32:04.505Z,52.87
2022-10-19T02:34:31.616Z,71.70
2022-10-19T02:36:58.893Z,29.53
2022-10-19T02:39:25.926Z,23.20
2022-10-19T02:42:28.442Z,10.17
2022-10-19T02:45:06.665Z,7.27
2022-10-19T02:47:54.045Z,15.30
2022-10-19T02:50:22.414Z,28.10
2022-10-19T02:52:49.382Z,31.33
2022-10-19T02:55:16.480Z,46.90
2022-10-19T02:57:43.441Z,41.43
2022-10-19T03:00:11.512Z,45.87
2022-10-19T03:02:38.319Z,61.03
2022-10-19T03:05:05.544Z,49.83
2022-10-19T03:07:32.756Z,73.07
2022-10-19T03:09:59.970Z,85.77
2022-10-19T03:12:26.933Z,56.33
2022-10-19T03:14:53.895Z,79.43
2022-10-19T03:17:20.750Z,62.53
2022-10-19T03:19:47.746Z,128.97
2022-10-19T03:22:15.020Z,141.40
2022-10-19T03:24:42.024Z,193.80
2022-10-19T03:27:08.997Z,365.27
2022-10-19T03:29:35.928Z,199.13
2022-10-19T03:32:02.935Z,246.27
2022-10-19T03:34:29.921Z,286.47
2022-10-19T03:36:59.188Z,338.97
2022-10-19T03:39:26.372Z,353.43
2022-10-19T03:41:53.453Z,121.47
2022-10-19T03:44:20.326Z,126.50
2022-10-19T03:46:47.283Z,162.30
2022-10-19T03:49:14.208Z,80.93
2022-10-19T03:51:41.109Z,82.03
2022-10-19T03:54:12.707Z,81.23
2022-10-19T03:56:39.602Z,91.83
2022-10-19T03:59:07.220Z,57.07
2022-10-19T04:01:37.547Z,99.33
2022-10-19T04:04:07.602Z,50.23
2022-10-19T04:06:37.503Z,60.60
2022-10-19T04:09:06.086Z,73.00
2022-10-19T04:11:34.213Z,75.77
2022-10-19T04:14:01.222Z,50.43
2022-10-19T04:16:30.246Z,45.10
2022-10-19T04:18:57.931Z,53.17
2022-10-19T04:21:33.565Z,69.80
2022-10-19T04:24:13.316Z,69.67
2022-10-19T04:26:49.272Z,125.40
2022-10-19T04:29:18.979Z,92.23
2022-10-19T04:31:46.288Z,71.10
2022-10-19T04:34:13.344Z,108.47
2022-10-19T04:36:40.387Z,63.90
2022-10-19T04:39:08.018Z,70.53
2022-10-19T04:41:35.505Z,77.73
2022-10-19T04:44:04.496Z,64.90
2022-10-19T04:46:31.630Z,58.47
2022-10-19T04:48:59.495Z,54.10
2022-10-19T04:51:27.074Z,99.27
2022-10-19T04:53:59.343Z,50.37
2022-10-19T04:56:27.872Z,53.40
2022-10-19T04:58:59.280Z,48.70
2022-10-19T05:01:28.814Z,67.27
2022-10-19T05:04:03.455Z,54.30
2022-10-19T05:06:31.426Z,67.57
2022-10-19T05:08:59.114Z,36.77
2022-10-19T05:11:27.260Z,66.23
2022-10-19T05:13:54.275Z,48.63
2022-10-19T05:16:23.685Z,43.87
2022-10-19T05:18:53.242Z,71.43
2022-10-19T05:21:21.860Z,74.93
2022-10-19T05:23:52.269Z,109.03
2022-10-19T05:26:21.234Z,117.10
2022-10-19T05:28:56.402Z,89.83
2022-10-19T05:31:26.431Z,78.53
2022-10-19T05:33:57.289Z,69.77
2022-10-19T05:36:27.431Z,56.13
2022-10-19T05:38:56.698Z,47.27
2022-10-19T05:41:25.159Z,64.73
2022-10-19T05:43:54.150Z,91.00
2022-10-19T05:46:21.130Z,155.30
2022-10-19T05:48:48.422Z,61.83
2022-10-19T05:51:20.462Z,95.27
2022-10-19T05:53:47.429Z,53.03
2022-10-19T05:56:19.771Z,99.73
2022-10-19T05:58:47.468Z,81.73
2022-10-19T06:01:15.089Z,133.47
2022-10-19T06:03:42.365Z,87.07
2022-10-19T06:06:10.026Z,123.87
2022-10-19T06:08:38.055Z,144.23
2022-10-19T06:11:16.979Z,139.83
2022-10-19T06:13:45.612Z,79.30
2022-10-19T06:16:14.360Z,62.90
2022-10-19T06:18:45.047Z,45.33
2022-10-19T06:21:14.587Z,53.93
2022-10-19T06:26:12.201Z,85.60
2022-10-19T06:28:40.984Z,89.43
2022-10-19T06:31:09.254Z,45.20
2022-10-19T06:33:37.316Z,60.67
2022-10-19T06:36:14.815Z,53.60
2022-10-19T06:38:42.306Z,92.33
2022-10-19T06:41:10.061Z,119.87
2022-10-19T06:43:37.217Z,33.97
2022-10-19T06:46:08.411Z,269.33
2022-10-19T06:48:35.595Z,51.63
2022-10-19T06:51:06.367Z,59.70
2022-10-19T06:53:34.815Z,36.33
2022-10-19T06:56:04.061Z,36.80
2022-10-19T06:58:31.192Z,27.43
2022-10-19T07:00:59.787Z,77.70
2022-10-19T07:03:28.279Z,59.13
2022-10-19T07:06:00.355Z,48.03
2022-10-19T07:08:29.216Z,39.83
2022-10-19T07:11:01.894Z,37.20
2022-10-19T07:13:30.301Z,40.13
2022-10-19T07:16:05.526Z,84.77
2022-10-19T07:18:36.582Z,59.30
2022-10-19T07:21:06.228Z,26.77
2022-10-19T07:23:34.540Z,56.00
2022-10-19T07:26:06.908Z,25.00
2022-10-19T07:28:35.246Z,23.93
2022-10-19T07:31:11.231Z,21.23
2022-10-19T07:33:38.477Z,16.40
2022-10-19T07:36:07.928Z,18.53
2022-10-19T07:38:35.769Z,19.13
2022-10-19T07:41:04.091Z,21.93
2022-10-19T07:43:31.055Z,19.97
2022-10-19T07:46:03.806Z,16.70
2022-10-19T07:48:31.023Z,18.27
2022-10-19T07:50:58.504Z,16.50
2022-10-19T07:53:25.460Z,16.87
2022-10-19T07:55:52.401Z,16.47
2022-10-19T07:58:20.481Z,18.30
2022-10-19T08:00:47.501Z,15.43
2022-10-19T08:06:02.692Z,22.27
2022-10-19T08:08:30.169Z,14.60
2022-10-19T08:10:57.385Z,16.43
2022-10-19T08:13:24.681Z,14.10
2022-10-19T08:15:51.602Z,16.87
2022-10-19T08:18:18.575Z,13.30
2022-10-19T08:20:45.719Z,12.60
2022-10-19T08:23:12.625Z,13.90
2022-10-19T08:25:39.662Z,22.97
2022-10-19T08:28:06.482Z,19.00
2022-10-19T08:30:35.854Z,15.90
2022-10-19T08:33:05.222Z,19.27
2022-10-19T08:35:32.079Z,18.37
2022-10-19T08:37:59.238Z,17.97
2022-10-19T08:40:30.139Z,18.60
2022-10-19T08:43:28.099Z,13.90
2022-10-19T08:46:22.098Z,18.53
2022-10-19T08:48:49.008Z,16.20
2022-10-19T08:51:16.063Z,18.37
2022-10-19T08:53:51.993Z,14.50
2022-10-19T08:56:51.702Z,17.43
2022-10-19T08:59:31.086Z,12.97
2022-10-19T09:02:03.854Z,15.03
2022-10-19T09:04:46.052Z,13.53
2022-10-19T09:07:33.181Z,14.90
2022-10-19T09:10:04.408Z,13.07
2022-10-19T09:12:37.486Z,11.33
2022-10-19T09:15:10.522Z,18.77
2022-10-19T09:17:37.410Z,8.60
2022-10-19T09:20:18.700Z,13.67
2022-10-19T09:22:50.930Z,8.80
2022-10-19T09:25:23.127Z,8.87
2022-10-19T09:27:59.020Z,13.17
2022-10-19T09:30:28.091Z,8.37
2022-10-19T09:33:02.372Z,7.00
2022-10-19T09:35:34.190Z,9.83
2022-10-19T09:38:01.528Z,7.40
2022-10-19T09:40:30.820Z,6.63
2022-10-19T09:42:59.252Z,6.67
2022-10-19T09:45:50.992Z,10.03
2022-10-19T09:48:18.037Z,6.20
2022-10-19T09:50:46.217Z,6.57
2022-10-19T09:53:20.847Z,9.70
2022-10-19T09:55:59.078Z,6.93
2022-10-19T09:58:32.084Z,7.10
2022-10-19T10:01:01.204Z,7.87
2022-10-19T10:03:36.011Z,7.10
2022-10-19T10:06:06.573Z,6.13
2022-10-19T10:08:58.994Z,7.03
2022-10-19T10:11:38.267Z,6.67
2022-10-19T10:14:21.803Z,7.67
2022-10-19T10:16:48.924Z,6.70
2022-10-19T10:19:17.206Z,5.90
2022-10-19T10:21:55.542Z,7.73
2022-10-19T10:24:30.907Z,5.80
2022-10-19T10:27:06.379Z,5.77
2022-10-19T10:29:39.349Z,12.00
2022-10-19T10:32:07.621Z,5.97
2022-10-19T10:35:03.099Z,5.60
2022-10-19T10:37:49.642Z,6.77
2022-10-19T10:40:31.381Z,5.97
2022-10-19T10:43:06.189Z,7.07
2022-10-19T10:45:46.301Z,6.73
2022-10-19T10:48:17.385Z,7.10
2022-10-19T10:50:44.946Z,8.60
2022-10-19T10:53:35.166Z,8.03
2022-10-19T10:56:02.318Z,7.20
2022-10-19T10:58:50.206Z,8.77
2022-10-19T11:01:24.000Z,11.30
2022-10-19T11:04:06.623Z,11.90
2022-10-19T11:06:42.312Z,15.23
2022-10-19T11:09:24.497Z,13.53
2022-10-19T11:11:55.983Z,17.47
2022-10-19T11:14:32.671Z,19.77
2022-10-19T11:17:06.067Z,15.53
2022-10-19T11:19:40.762Z,14.43
2022-10-19T11:22:16.552Z,16.97
2022-10-19T11:25:17.765Z,15.80
2022-10-19T11:28:01.970Z,13.80
2022-10-19T11:30:33.365Z,18.03
2022-10-19T11:33:14.802Z,17.17
2022-10-19T11:35:54.088Z,15.60
2022-10-19T11:38:30.042Z,18.73
2022-10-19T11:41:17.272Z,16.43
2022-10-19T11:43:53.906Z,12.77
2022-10-19T11:46:26.927Z,14.97
2022-10-19T11:49:14.973Z,17.77
2022-10-19T11:52:18.264Z,8.53
2022-10-19T11:55:12.497Z,9.27
2022-10-19T11:57:51.541Z,8.40
2022-10-19T12:03:15.213Z,5.63
2022-10-19T12:06:12.744Z,6.70
2022-10-19T12:08:58.033Z,6.50
2022-10-19T12:11:43.308Z,6.10
2022-10-19T12:14:16.362Z,5.13
2022-10-19T12:16:49.991Z,6.50
2022-10-19T12:19:40.671Z,6.30
2022-10-19T12:22:15.321Z,5.77
2022-10-19T12:24:42.384Z,8.53
2022-10-19T12:27:17.344Z,4.50
2022-10-19T12:29:48.554Z,5.50
2022-10-19T12:32:19.671Z,5.37
2022-10-19T12:35:17.375Z,5.20
2022-10-19T12:38:31.858Z,5.10
2022-10-19T12:41:08.062Z,4.57
2022-10-19T12:43:55.754Z,7.30
2022-10-19T12:46:41.319Z,5.37
2022-10-19T12:49:26.658Z,5.07
2022-10-19T12:51:55.244Z,7.80
2022-10-19T12:54:43.196Z,4.90
2022-10-19T12:57:29.086Z,5.00
2022-10-19T13:00:19.433Z,4.70
2022-10-19T13:02:48.339Z,5.70
2022-10-19T13:05:26.219Z,5.53
2022-10-19T13:07:53.148Z,5.87
2022-10-19T13:10:23.597Z,6.33
2022-10-19T13:12:51.247Z,7.97
2022-10-19T13:15:36.570Z,5.63
2022-10-19T13:18:11.457Z,10.90
2022-10-19T13:20:38.392Z,4.87
2022-10-19T13:23:05.268Z,5.20
2022-10-19T13:25:36.672Z,5.97
2022-10-19T13:28:06.382Z,5.30
2022-10-19T13:30:36.474Z,4.13
2022-10-19T13:33:35.063Z,3.77
2022-10-19T13:36:02.700Z,4.83
2022-10-19T13:38:48.821Z,2.83
2022-10-19T13:41:25.179Z,6.37
2022-10-19T13:44:29.038Z,5.13
2022-10-19T13:47:14.450Z,5.67
2022-10-19T13:50:35.951Z,4.60
2022-10-19T13:53:02.795Z,4.97
2022-10-19T13:56:00.333Z,5.37
2022-10-19T13:58:51.975Z,4.33
2022-10-19T14:01:29.521Z,7.03
2022-10-19T14:04:20.875Z,5.73
2022-10-19T14:06:56.007Z,4.23
2022-10-19T14:09:28.857Z,5.43
2022-10-19T14:12:06.881Z,4.70
2022-10-19T14:14:44.624Z,6.60
2022-10-19T14:19:51.157Z,3.83
2022-10-19T14:22:31.200Z,5.50
2022-10-19T14:25:04.562Z,2.43
2022-10-19T14:27:33.102Z,1.97
2022-10-19T14:30:00.624Z,2.13
2022-10-19T14:32:29.438Z,3.03
2022-10-19T14:37:32.190Z,2.83
2022-10-19T14:40:27.848Z,3.40
2022-10-19T14:42:57.223Z,4.10
2022-10-19T14:45:27.579Z,2.47
2022-10-19T14:48:02.855Z,3.77
2022-10-19T14:50:32.796Z,3.03
2022-10-19T14:53:24.460Z,3.93
2022-10-19T14:55:55.230Z,3.07
2022-10-19T14:58:25.139Z,5.03
2022-10-19T15:00:53.842Z,3.33
2022-10-19T15:03:28.558Z,3.10
2022-10-19T15:06:06.916Z,4.60
2022-10-19T15:08:43.681Z,15.50
2022-10-19T15:11:27.207Z,4.67
2022-10-19T15:14:15.634Z,4.30
2022-10-19T15:16:58.816Z,3.67
2022-10-19T15:19:28.932Z,4.13
2022-10-19T15:22:14.706Z,3.57
2022-10-19T15:24:57.814Z,3.77
2022-10-19T15:27:30.725Z,3.50
2022-10-19T15:30:05.211Z,5.87
2022-10-19T15:32:36.609Z,9.17
2022-10-19T15:35:25.528Z,4.10
2022-10-19T15:38:00.806Z,4.00
2022-10-19T15:40:39.638Z,6.87
2022-10-19T15:43:34.528Z,3.53
2022-10-19T15:46:06.077Z,4.73
2022-10-19T15:48:44.328Z,3.90
2022-10-19T15:51:23.654Z,5.47
2022-10-19T15:54:02.107Z,9.00
2022-10-19T15:56:31.327Z,3.80
2022-10-19T15:59:01.006Z,4.33
2022-10-19T16:01:30.378Z,6.10
2022-10-19T16:03:58.320Z,5.30
2022-10-19T16:06:28.238Z,5.60
2022-10-19T16:08:55.336Z,6.10
2022-10-19T16:11:24.351Z,6.10
2022-10-19T16:13:51.836Z,7.73
2022-10-19T16:16:27.740Z,6.97
2022-10-19T16:18:56.037Z,5.00
2022-10-19T16:21:29.614Z,6.20
2022-10-19T16:24:00.527Z,4.97
2022-10-19T16:26:27.976Z,5.50
2022-10-19T16:28:56.072Z,18.43
2022-10-19T16:31:24.102Z,13.07
2022-10-19T16:33:51.375Z,7.60
2022-10-19T16:36:20.365Z,7.43
2022-10-19T16:38:47.780Z,5.33
2022-10-19T16:41:16.443Z,7.13
2022-10-19T16:43:43.730Z,6.10
2022-10-19T16:46:10.913Z,7.03
2022-10-19T16:48:38.310Z,5.67
2022-10-19T16:51:10.315Z,4.80
2022-10-19T16:53:38.419Z,6.37
2022-10-19T16:56:07.149Z,9.70
2022-10-19T16:58:34.117Z,4.57
2022-10-19T17:01:14.420Z,5.50
2022-10-19T17:03:41.683Z,10.03
2022-10-19T17:06:09.256Z,4.70
2022-10-19T17:08:53.068Z,5.87
2022-10-19T17:11:25.224Z,6.93
2022-10-19T17:13:54.394Z,4.77
2022-10-19T17:16:22.117Z,6.40
2022-10-19T17:18:49.974Z,7.57
2022-10-19T17:21:22.727Z,5.97
2022-10-19T17:23:53.983Z,5.00
2022-10-19T17:26:36.262Z,6.00
2022-10-19T17:29:04.002Z,4.80
2022-10-19T17:31:31.699Z,7.27
2022-10-19T17:34:00.680Z,7.80
2022-10-19T17:36:30.415Z,6.30
2022-10-19T17:39:00.628Z,5.70
2022-10-19T17:41:28.608Z,6.23
2022-10-19T17:43:56.031Z,6.33
2022-10-19T17:46:26.832Z,8.20
2022-10-19T17:48:53.944Z,9.57
2022-10-19T17:51:29.686Z,4.67
2022-10-19T17:53:59.873Z,6.13
2022-10-19T17:56:27.774Z,6.20
2022-10-19T17:58:56.367Z,5.50
2022-10-19T18:01:23.760Z,7.60
2022-10-19T18:03:54.072Z,6.00
2022-10-19T18:06:23.321Z,10.87
2022-10-19T18:08:53.085Z,10.33
2022-10-19T18:11:23.765Z,5.83
2022-10-19T18:13:52.168Z,8.33
2022-10-19T18:16:20.956Z,7.70
2022-10-19T18:18:49.872Z,10.47
2022-10-19T18:21:20.478Z,5.87
2022-10-19T18:23:47.973Z,5.60
2022-10-19T18:26:19.830Z,7.50
2022-10-19T18:28:46.727Z,5.40
2022-10-19T18:31:25.671Z,6.50
2022-10-19T18:33:58.270Z,5.17
2022-10-19T18:36:25.842Z,5.63
2022-10-19T18:38:58.123Z,6.70
2022-10-19T18:41:25.511Z,5.77
2022-10-19T18:44:05.120Z,7.33
2022-10-19T18:46:33.901Z,6.47
2022-10-19T18:49:01.987Z,7.60
2022-10-19T18:51:29.219Z,9.57
2022-10-19T18:53:56.158Z,7.10
2022-10-19T18:56:23.931Z,6.67
2022-10-19T18:58:51.061Z,7.47
2022-10-19T19:01:24.187Z,8.00
2022-10-19T19:03:53.213Z,7.33
2022-10-19T19:06:26.035Z,7.20
2022-10-19T19:08:57.763Z,8.60
2022-10-19T19:11:28.767Z,8.17
2022-10-19T19:14:00.149Z,9.80
2022-10-19T19:16:28.653Z,7.63
2022-10-19T19:18:55.912Z,11.80
2022-10-19T19:21:25.403Z,8.60
2022-10-19T19:23:54.136Z,15.00
2022-10-19T19:26:23.207Z,8.67
2022-10-19T19:28:51.695Z,8.70
2022-10-19T19:31:21.916Z,14.20
2022-10-19T19:33:48.834Z,11.00
2022-10-19T19:36:17.357Z,7.27
2022-10-19T19:38:45.584Z,7.23
2022-10-19T19:41:14.491Z,8.57
2022-10-19T19:43:42.653Z,8.23
2022-10-19T19:46:15.304Z,8.53
2022-10-19T19:48:44.586Z,7.93
2022-10-19T19:51:20.123Z,11.70
2022-10-19T19:53:48.303Z,10.17
2022-10-19T19:56:16.506Z,8.90
2022-10-19T19:58:44.514Z,8.57
2022-10-19T20:01:17.564Z,9.10
2022-10-19T20:03:48.295Z,7.63
2022-10-19T20:06:19.585Z,7.37
2022-10-19T20:08:49.343Z,9.53
2022-10-19T20:11:17.633Z,7.70
2022-10-19T20:13:45.824Z,8.67
2022-10-19T20:16:23.939Z,7.00
2022-10-19T20:19:01.045Z,10.93
2022-10-19T20:21:28.115Z,12.90
2022-10-19T20:23:55.052Z,11.17
2022-10-19T20:26:23.929Z,14.83
2022-10-19T20:28:51.442Z,12.63
2022-10-19T20:31:19.039Z,11.50
2022-10-19T20:33:50.051Z,11.90
2022-10-19T20:36:20.607Z,12.93
2022-10-19T20:38:50.009Z,12.30
2022-10-19T20:41:17.866Z,10.87
2022-10-19T20:43:44.721Z,12.33
2022-10-19T20:46:18.897Z,15.43
2022-10-19T20:48:46.274Z,13.20
2022-10-19T20:51:24.862Z,15.70
2022-10-19T20:53:55.917Z,13.10
2022-10-19T20:56:25.281Z,14.67
2022-10-19T20:59:00.571Z,14.50
2022-10-19T21:01:29.215Z,15.20
2022-10-19T21:04:01.770Z,13.60
2022-10-19T21:06:30.736Z,14.87
2022-10-19T21:08:59.133Z,12.87
2022-10-19T21:11:29.433Z,13.57
2022-10-19T21:14:01.459Z,14.40
2022-10-19T21:16:33.985Z,12.97
2022-10-19T21:19:03.041Z,12.40
2022-10-19T21:21:32.173Z,10.43
2022-10-19T21:24:01.466Z,13.13
2022-10-19T21:26:29.009Z,18.90
2022-10-19T21:28:56.757Z,13.10
2022-10-19T21:31:25.735Z,15.17
2022-10-19T21:33:53.377Z,16.23
2022-10-19T21:36:25.046Z,16.63
2022-10-19T21:38:51.972Z,16.77
2022-10-19T21:41:23.863Z,18.67
2022-10-19T21:43:53.699Z,15.47
2022-10-19T21:46:22.180Z,17.67
2022-10-19T21:48:49.615Z,16.47
2022-10-19T21:51:35.018Z,15.67
2022-10-19T21:54:06.871Z,21.40
2022-10-19T21:56:34.776Z,16.00
2022-10-19T21:59:01.648Z,18.70
2022-10-19T22:01:30.291Z,17.67
2022-10-19T22:04:03.221Z,21.23
2022-10-19T22:06:32.519Z,23.47
2022-10-19T22:09:00.129Z,19.93
2022-10-19T22:11:27.960Z,15.07
2022-10-19T22:13:56.579Z,16.73
2022-10-19T22:16:24.612Z,23.13
2022-10-19T22:18:52.194Z,18.70
2022-10-19T22:21:23.127Z,17.43
2022-10-19T22:23:55.943Z,16.50
2022-10-19T22:26:29.427Z,17.53
2022-10-19T22:28:58.161Z,14.43
2022-10-19T22:31:26.341Z,17.63
2022-10-19T22:33:53.391Z,18.17
2022-10-19T22:36:20.396Z,17.97
2022-10-19T22:38:47.451Z,20.07
2022-10-19T22:41:14.412Z,21.17
2022-10-19T22:43:41.306Z,17.97
2022-10-19T22:46:08.380Z,21.13
2022-10-19T22:48:35.218Z,21.53
2022-10-19T22:51:02.215Z,17.03
2022-10-19T22:53:29.153Z,24.93
2022-10-19T22:55:56.168Z,18.13
2022-10-19T22:58:23.010Z,22.53
2022-10-19T23:01:07.713Z,19.30
2022-10-19T23:03:35.311Z,16.13
2022-10-19T23:06:02.485Z,21.87
2022-10-19T23:08:29.301Z,19.67
2022-10-19T23:10:56.565Z,15.57
2022-10-19T23:13:24.241Z,13.70
2022-10-19T23:15:51.214Z,18.27
2022-10-19T23:18:18.439Z,18.27
2022-10-19T23:20:59.772Z,19.17
2022-10-19T23:23:27.502Z,21.37
2022-10-19T23:26:15.526Z,19.27
2022-10-19T23:28:45.382Z,17.57
2022-10-19T23:31:26.340Z,19.00
2022-10-19T23:33:54.445Z,21.03
2022-10-19T23:36:24.738Z,20.47
2022-10-19T23:38:52.809Z,20.10
2022-10-19T23:41:20.197Z,18.30
2022-10-19T23:43:47.770Z,25.63
2022-10-19T23:46:15.230Z,23.13
2022-10-19T23:48:42.285Z,24.87
2022-10-19T23:51:17.933Z,21.83
2022-10-19T23:53:47.499Z,20.67
2022-10-19T23:56:23.109Z,22.33
2022-10-19T23:58:51.430Z,24.83
